sensor_id;sensor_type;location;lat;lon;timestamp;P1;durP1;ratioP1;P2;durP2;ratioP2
21647;SDS011;10985;54.182;7.890;2024-03-23T00:55:13;5.35;;;2.83;;
21647;SDS011;10985;54.182;7.890;2024-03-23T00:57:39;4.80;;;3.00;;
21647;SDS011;10985;54.182;7.890;2024-03-23T01:00:04;5.68;;;3.00;;
21647;SDS011;10985;54.182;7.890;2024-03-23T01:02:31;5.72;;;3.20;;
21647;SDS011;10985;54.182;7.890;2024-03-23T01:04:57;7.03;;;3.38;;
21647;SDS011;10985;54.182;7.890;2024-03-23T01:07:22;6.65;;;3.00;;
21647;SDS011;10985;54.182;7.890;2024-03-23T01:09:48;6.43;;;2.92;;
21647;SDS011;10985;54.182;7.890;2024-03-23T01:12:13;6.93;;;3.17;;
21647;SDS011;10985;54.182;7.890;2024-03-23T01:14:39;5.40;;;3.05;;
21647;SDS011;10985;54.182;7.890;2024-03-23T01:17:04;4.53;;;3.17;;
21647;SDS011;10985;54.182;7.890;2024-03-23T01:19:30;6.38;;;2.97;;
21647;SDS011;10985;54.182;7.890;2024-03-23T01:21:55;4.85;;;2.65;;
21647;SDS011;10985;54.182;7.890;2024-03-23T01:24:21;7.45;;;3.10;;
21647;SDS011;10985;54.182;7.890;2024-03-23T01:26:46;6.28;;;3.03;;
21647;SDS011;10985;54.182;7.890;2024-03-23T01:29:12;7.70;;;2.85;;
21647;SDS011;10985;54.182;7.890;2024-03-23T01:31:37;4.03;;;2.63;;
21647;SDS011;10985;54.182;7.890;2024-03-23T01:34:03;8.52;;;3.58;;
21647;SDS011;10985;54.182;7.890;2024-03-23T01:36:28;5.75;;;2.92;;
21647;SDS011;10985;54.182;7.890;2024-03-23T01:38:54;6.38;;;3.03;;
21647;SDS011;10985;54.182;7.890;2024-03-23T01:41:19;6.50;;;3.05;;
21647;SDS011;10985;54.182;7.890;2024-03-23T01:43:45;3.58;;;2.80;;
21647;SDS011;10985;54.182;7.890;2024-03-23T01:46:10;4.72;;;2.80;;
21647;SDS011;10985;54.182;7.890;2024-03-23T01:48:36;8.73;;;2.83;;
21647;SDS011;10985;54.182;7.890;2024-03-23T01:51:02;4.97;;;2.42;;
21647;SDS011;10985;54.182;7.890;2024-03-23T01:53:29;6.35;;;2.75;;
21647;SDS011;10985;54.182;7.890;2024-03-23T01:55:55;7.60;;;3.58;;
21647;SDS011;10985;54.182;7.890;2024-03-23T01:58:22;6.78;;;2.78;;
21647;SDS011;10985;54.182;7.890;2024-03-23T02:00:47;4.72;;;2.97;;
21647;SDS011;10985;54.182;7.890;2024-03-23T02:03:25;5.03;;;2.65;;
21647;SDS011;10985;54.182;7.890;2024-03-23T02:05:55;7.53;;;2.90;;
21647;SDS011;10985;54.182;7.890;2024-03-23T02:08:22;5.10;;;3.22;;
21647;SDS011;10985;54.182;7.890;2024-03-23T02:10:48;6.20;;;2.80;;
21647;SDS011;10985;54.182;7.890;2024-03-23T02:13:14;7.13;;;3.50;;
21647;SDS011;10985;54.182;7.890;2024-03-23T02:15:41;9.90;;;3.55;;
21647;SDS011;10985;54.182;7.890;2024-03-23T02:18:09;6.65;;;3.05;;
21647;SDS011;10985;54.182;7.890;2024-03-23T02:20:35;5.18;;;2.53;;
21647;SDS011;10985;54.182;7.890;2024-03-23T02:23:02;5.53;;;3.00;;
21647;SDS011;10985;54.182;7.890;2024-03-23T02:25:28;6.22;;;2.80;;
21647;SDS011;10985;54.182;7.890;2024-03-23T02:27:53;4.97;;;2.88;;
21647;SDS011;10985;54.182;7.890;2024-03-23T02:30:19;6.93;;;3.08;;
21647;SDS011;10985;54.182;7.890;2024-03-23T02:32:45;7.63;;;3.28;;
21647;SDS011;10985;54.182;7.890;2024-03-23T02:35:11;3.45;;;2.63;;
21647;SDS011;10985;54.182;7.890;2024-03-23T02:37:36;6.43;;;2.92;;
21647;SDS011;10985;54.182;7.890;2024-03-23T02:40:02;5.80;;;2.90;;
21647;SDS011;10985;54.182;7.890;2024-03-23T02:42:27;5.50;;;2.80;;
21647;SDS011;10985;54.182;7.890;2024-03-23T02:44:53;4.68;;;2.70;;
21647;SDS011;10985;54.182;7.890;2024-03-23T02:47:19;8.57;;;3.30;;
21647;SDS011;10985;54.182;7.890;2024-03-23T02:49:44;4.50;;;2.88;;
21647;SDS011;10985;54.182;7.890;2024-03-23T02:52:10;5.43;;;3.50;;
21647;SDS011;10985;54.182;7.890;2024-03-23T02:54:35;9.00;;;3.08;;
21647;SDS011;10985;54.182;7.890;2024-03-23T02:57:01;6.85;;;3.30;;
21647;SDS011;10985;54.182;7.890;2024-03-23T02:59:27;9.55;;;3.00;;
21647;SDS011;10985;54.182;7.890;2024-03-23T03:01:52;5.90;;;3.00;;
21647;SDS011;10985;54.182;7.890;2024-03-23T03:04:18;7.80;;;3.22;;
21647;SDS011;10985;54.182;7.890;2024-03-23T03:06:46;5.15;;;2.95;;
21647;SDS011;10985;54.182;7.890;2024-03-23T03:09:12;6.78;;;3.05;;
21647;SDS011;10985;54.182;7.890;2024-03-23T03:11:38;6.65;;;3.03;;
21647;SDS011;10985;54.182;7.890;2024-03-23T03:14:03;5.57;;;2.90;;
21647;SDS011;10985;54.182;7.890;2024-03-23T03:16:28;8.40;;;3.40;;
21647;SDS011;10985;54.182;7.890;2024-03-23T03:18:54;7.28;;;3.33;;
21647;SDS011;10985;54.182;7.890;2024-03-23T03:21:19;5.95;;;3.65;;
21647;SDS011;10985;54.182;7.890;2024-03-23T03:23:45;6.85;;;3.63;;
21647;SDS011;10985;54.182;7.890;2024-03-23T03:26:10;5.40;;;3.10;;
21647;SDS011;10985;54.182;7.890;2024-03-23T03:28:36;4.50;;;3.00;;
21647;SDS011;10985;54.182;7.890;2024-03-23T03:31:01;7.20;;;3.22;;
21647;SDS011;10985;54.182;7.890;2024-03-23T03:33:27;6.40;;;3.58;;
21647;SDS011;10985;54.182;7.890;2024-03-23T03:35:53;5.35;;;3.15;;
21647;SDS011;10985;54.182;7.890;2024-03-23T03:38:19;6.18;;;3.58;;
21647;SDS011;10985;54.182;7.890;2024-03-23T03:40:44;6.03;;;3.28;;
21647;SDS011;10985;54.182;7.890;2024-03-23T03:43:10;6.90;;;3.33;;
21647;SDS011;10985;54.182;7.890;2024-03-23T03:45:36;9.10;;;3.20;;
21647;SDS011;10985;54.182;7.890;2024-03-23T03:48:01;9.30;;;3.53;;
21647;SDS011;10985;54.182;7.890;2024-03-23T03:50:27;12.07;;;3.08;;
21647;SDS011;10985;54.182;7.890;2024-03-23T03:52:53;5.25;;;2.95;;
21647;SDS011;10985;54.182;7.890;2024-03-23T03:55:18;6.00;;;3.40;;
21647;SDS011;10985;54.182;7.890;2024-03-23T03:57:44;7.30;;;3.03;;
21647;SDS011;10985;54.182;7.890;2024-03-23T04:00:09;8.30;;;3.20;;
21647;SDS011;10985;54.182;7.890;2024-03-23T04:02:36;7.32;;;3.47;;
21647;SDS011;10985;54.182;7.890;2024-03-23T04:05:02;7.28;;;3.17;;
21647;SDS011;10985;54.182;7.890;2024-03-23T04:07:28;6.30;;;3.17;;
21647;SDS011;10985;54.182;7.890;2024-03-23T04:09:53;6.43;;;3.15;;
21647;SDS011;10985;54.182;7.890;2024-03-23T04:12:19;5.50;;;3.22;;
21647;SDS011;10985;54.182;7.890;2024-03-23T04:14:45;6.00;;;2.92;;
21647;SDS011;10985;54.182;7.890;2024-03-23T04:17:11;4.43;;;2.72;;
21647;SDS011;10985;54.182;7.890;2024-03-23T04:19:36;5.32;;;2.80;;
21647;SDS011;10985;54.182;7.890;2024-03-23T04:22:02;4.65;;;2.80;;
21647;SDS011;10985;54.182;7.890;2024-03-23T04:24:28;4.28;;;2.95;;
21647;SDS011;10985;54.182;7.890;2024-03-23T04:26:54;5.53;;;2.70;;
21647;SDS011;10985;54.182;7.890;2024-03-23T04:29:19;4.32;;;2.92;;
21647;SDS011;10985;54.182;7.890;2024-03-23T04:31:45;4.97;;;2.80;;
21647;SDS011;10985;54.182;7.890;2024-03-23T04:34:10;6.97;;;3.45;;
21647;SDS011;10985;54.182;7.890;2024-03-23T04:36:36;7.68;;;3.15;;
21647;SDS011;10985;54.182;7.890;2024-03-23T04:39:02;5.70;;;3.00;;
21647;SDS011;10985;54.182;7.890;2024-03-23T04:41:27;4.00;;;2.80;;
21647;SDS011;10985;54.182;7.890;2024-03-23T04:43:53;4.90;;;3.15;;
21647;SDS011;10985;54.182;7.890;2024-03-23T04:46:18;5.35;;;2.92;;
21647;SDS011;10985;54.182;7.890;2024-03-23T04:48:45;5.35;;;2.75;;
21647;SDS011;10985;54.182;7.890;2024-03-23T04:51:11;5.18;;;2.80;;
21647;SDS011;10985;54.182;7.890;2024-03-23T04:53:46;5.57;;;2.90;;
21647;SDS011;10985;54.182;7.890;2024-03-23T04:56:12;3.92;;;2.60;;
21647;SDS011;10985;54.182;7.890;2024-03-23T04:58:38;6.70;;;2.72;;
21647;SDS011;10985;54.182;7.890;2024-03-23T05:01:04;3.78;;;2.95;;
21647;SDS011;10985;54.182;7.890;2024-03-23T05:03:29;7.22;;;3.03;;
21647;SDS011;10985;54.182;7.890;2024-03-23T05:05:55;5.43;;;3.28;;
21647;SDS011;10985;54.182;7.890;2024-03-23T05:08:20;5.60;;;2.85;;
21647;SDS011;10985;54.182;7.890;2024-03-23T05:10:46;4.75;;;3.03;;
21647;SDS011;10985;54.182;7.890;2024-03-23T05:13:11;5.65;;;2.78;;
21647;SDS011;10985;54.182;7.890;2024-03-23T05:15:37;3.45;;;2.85;;
21647;SDS011;10985;54.182;7.890;2024-03-23T05:18:03;5.55;;;3.08;;
21647;SDS011;10985;54.182;7.890;2024-03-23T05:20:30;3.75;;;2.50;;
21647;SDS011;10985;54.182;7.890;2024-03-23T05:22:56;5.80;;;3.00;;
21647;SDS011;10985;54.182;7.890;2024-03-23T05:25:21;3.45;;;2.95;;
21647;SDS011;10985;54.182;7.890;2024-03-23T05:27:47;3.88;;;2.75;;
21647;SDS011;10985;54.182;7.890;2024-03-23T05:30:13;4.93;;;3.08;;
21647;SDS011;10985;54.182;7.890;2024-03-23T05:32:39;3.38;;;2.65;;
21647;SDS011;10985;54.182;7.890;2024-03-23T05:35:06;3.22;;;2.92;;
21647;SDS011;10985;54.182;7.890;2024-03-23T05:37:32;4.55;;;3.03;;
21647;SDS011;10985;54.182;7.890;2024-03-23T05:39:59;4.30;;;2.80;;
21647;SDS011;10985;54.182;7.890;2024-03-23T05:42:24;5.30;;;2.75;;
21647;SDS011;10985;54.182;7.890;2024-03-23T05:44:50;4.55;;;2.90;;
21647;SDS011;10985;54.182;7.890;2024-03-23T05:47:15;3.72;;;3.10;;
21647;SDS011;10985;54.182;7.890;2024-03-23T05:49:41;4.13;;;2.88;;
21647;SDS011;10985;54.182;7.890;2024-03-23T05:52:08;4.00;;;3.00;;
21647;SDS011;10985;54.182;7.890;2024-03-23T05:54:34;4.65;;;2.63;;
21647;SDS011;10985;54.182;7.890;2024-03-23T05:57:00;4.97;;;2.80;;
21647;SDS011;10985;54.182;7.890;2024-03-23T05:59:26;4.63;;;2.88;;
21647;SDS011;10985;54.182;7.890;2024-03-23T06:01:52;7.80;;;2.97;;
21647;SDS011;10985;54.182;7.890;2024-03-23T06:04:17;5.07;;;2.70;;
21647;SDS011;10985;54.182;7.890;2024-03-23T06:06:43;3.55;;;2.72;;
21647;SDS011;10985;54.182;7.890;2024-03-23T06:09:08;5.95;;;2.55;;
21647;SDS011;10985;54.182;7.890;2024-03-23T06:11:34;4.10;;;2.55;;
21647;SDS011;10985;54.182;7.890;2024-03-23T06:13:59;5.78;;;2.85;;
21647;SDS011;10985;54.182;7.890;2024-03-23T06:16:25;3.92;;;2.42;;
21647;SDS011;10985;54.182;7.890;2024-03-23T06:18:52;5.15;;;2.67;;
21647;SDS011;10985;54.182;7.890;2024-03-23T06:21:17;4.32;;;2.60;;
21647;SDS011;10985;54.182;7.890;2024-03-23T06:23:43;4.63;;;2.60;;
21647;SDS011;10985;54.182;7.890;2024-03-23T06:26:15;4.63;;;2.67;;
21647;SDS011;10985;54.182;7.890;2024-03-23T06:28:42;3.53;;;2.20;;
21647;SDS011;10985;54.182;7.890;2024-03-23T06:31:11;2.53;;;2.22;;
21647;SDS011;10985;54.182;7.890;2024-03-23T06:33:36;3.60;;;2.22;;
21647;SDS011;10985;54.182;7.890;2024-03-23T06:36:03;4.32;;;2.42;;
21647;SDS011;10985;54.182;7.890;2024-03-23T06:38:29;4.75;;;2.30;;
21647;SDS011;10985;54.182;7.890;2024-03-23T06:40:55;3.00;;;2.30;;
21647;SDS011;10985;54.182;7.890;2024-03-23T06:43:20;2.83;;;2.15;;
21647;SDS011;10985;54.182;7.890;2024-03-23T06:45:55;2.85;;;2.30;;
21647;SDS011;10985;54.182;7.890;2024-03-23T06:48:21;3.58;;;2.05;;
21647;SDS011;10985;54.182;7.890;2024-03-23T06:50:47;3.92;;;2.40;;
21647;SDS011;10985;54.182;7.890;2024-03-23T06:53:13;2.55;;;2.33;;
21647;SDS011;10985;54.182;7.890;2024-03-23T06:55:39;2.70;;;2.10;;
21647;SDS011;10985;54.182;7.890;2024-03-23T06:58:05;2.90;;;2.30;;
21647;SDS011;10985;54.182;7.890;2024-03-23T07:00:31;3.05;;;1.95;;
21647;SDS011;10985;54.182;7.890;2024-03-23T07:02:57;4.03;;;2.95;;
21647;SDS011;10985;54.182;7.890;2024-03-23T07:05:24;4.93;;;2.40;;
21647;SDS011;10985;54.182;7.890;2024-03-23T07:07:49;2.85;;;2.10;;
21647;SDS011;10985;54.182;7.890;2024-03-23T07:10:15;3.63;;;2.50;;
21647;SDS011;10985;54.182;7.890;2024-03-23T07:12:40;3.25;;;1.95;;
21647;SDS011;10985;54.182;7.890;2024-03-23T07:15:06;3.22;;;2.25;;
21647;SDS011;10985;54.182;7.890;2024-03-23T07:17:33;3.22;;;2.15;;
21647;SDS011;10985;54.182;7.890;2024-03-23T07:20:00;2.45;;;2.25;;
21647;SDS011;10985;54.182;7.890;2024-03-23T07:22:29;2.70;;;2.28;;
21647;SDS011;10985;54.182;7.890;2024-03-23T07:24:55;2.03;;;1.92;;
21647;SDS011;10985;54.182;7.890;2024-03-23T07:27:21;2.35;;;2.15;;
21647;SDS011;10985;54.182;7.890;2024-03-23T07:29:46;4.60;;;2.30;;
21647;SDS011;10985;54.182;7.890;2024-03-23T07:32:12;2.10;;;1.90;;
21647;SDS011;10985;54.182;7.890;2024-03-23T07:34:37;3.08;;;2.35;;
21647;SDS011;10985;54.182;7.890;2024-03-23T07:37:03;3.13;;;2.13;;
21647;SDS011;10985;54.182;7.890;2024-03-23T07:39:28;4.70;;;2.20;;
21647;SDS011;10985;54.182;7.890;2024-03-23T07:41:54;2.55;;;2.10;;
21647;SDS011;10985;54.182;7.890;2024-03-23T07:44:19;2.15;;;2.05;;
21647;SDS011;10985;54.182;7.890;2024-03-23T07:46:45;2.40;;;2.30;;
21647;SDS011;10985;54.182;7.890;2024-03-23T07:49:10;3.42;;;2.22;;
21647;SDS011;10985;54.182;7.890;2024-03-23T07:51:36;4.32;;;2.20;;
21647;SDS011;10985;54.182;7.890;2024-03-23T07:54:04;3.60;;;2.25;;
21647;SDS011;10985;54.182;7.890;2024-03-23T07:56:29;3.70;;;2.60;;
21647;SDS011;10985;54.182;7.890;2024-03-23T07:58:55;2.25;;;2.10;;
21647;SDS011;10985;54.182;7.890;2024-03-23T08:01:20;2.63;;;2.15;;
21647;SDS011;10985;54.182;7.890;2024-03-23T08:03:46;4.05;;;2.80;;
21647;SDS011;10985;54.182;7.890;2024-03-23T08:06:12;3.22;;;2.15;;
21647;SDS011;10985;54.182;7.890;2024-03-23T08:08:40;2.95;;;1.90;;
21647;SDS011;10985;54.182;7.890;2024-03-23T08:11:06;3.80;;;2.53;;
21647;SDS011;10985;54.182;7.890;2024-03-23T08:13:32;3.38;;;2.00;;
21647;SDS011;10985;54.182;7.890;2024-03-23T08:15:58;2.97;;;1.95;;
21647;SDS011;10985;54.182;7.890;2024-03-23T08:18:25;3.80;;;2.13;;
21647;SDS011;10985;54.182;7.890;2024-03-23T08:21:00;4.63;;;2.10;;
21647;SDS011;10985;54.182;7.890;2024-03-23T08:23:27;3.63;;;2.53;;
21647;SDS011;10985;54.182;7.890;2024-03-23T08:26:00;3.28;;;2.10;;
21647;SDS011;10985;54.182;7.890;2024-03-23T08:28:26;2.83;;;2.20;;
21647;SDS011;10985;54.182;7.890;2024-03-23T08:30:52;3.47;;;2.30;;
21647;SDS011;10985;54.182;7.890;2024-03-23T08:33:19;3.72;;;2.20;;
21647;SDS011;10985;54.182;7.890;2024-03-23T08:35:57;1.98;;;1.80;;
21647;SDS011;10985;54.182;7.890;2024-03-23T08:38:24;2.47;;;2.10;;
21647;SDS011;10985;54.182;7.890;2024-03-23T08:40:57;3.08;;;2.30;;
21647;SDS011;10985;54.182;7.890;2024-03-23T08:43:39;2.55;;;2.10;;
21647;SDS011;10985;54.182;7.890;2024-03-23T08:46:23;4.43;;;2.38;;
21647;SDS011;10985;54.182;7.890;2024-03-23T08:48:48;3.95;;;2.15;;
21647;SDS011;10985;54.182;7.890;2024-03-23T08:51:15;3.85;;;2.28;;
21647;SDS011;10985;54.182;7.890;2024-03-23T08:53:41;2.33;;;2.08;;
21647;SDS011;10985;54.182;7.890;2024-03-23T08:56:08;4.47;;;2.88;;
21647;SDS011;10985;54.182;7.890;2024-03-23T08:58:34;2.35;;;1.80;;
21647;SDS011;10985;54.182;7.890;2024-03-23T09:01:05;3.28;;;1.90;;
21647;SDS011;10985;54.182;7.890;2024-03-23T09:03:32;3.45;;;1.58;;
21647;SDS011;10985;54.182;7.890;2024-03-23T09:05:58;2.70;;;2.00;;
21647;SDS011;10985;54.182;7.890;2024-03-23T09:08:24;2.15;;;1.67;;
21647;SDS011;10985;54.182;7.890;2024-03-23T09:10:49;3.30;;;2.00;;
21647;SDS011;10985;54.182;7.890;2024-03-23T09:13:15;4.05;;;2.08;;
21647;SDS011;10985;54.182;7.890;2024-03-23T09:15:51;3.05;;;1.83;;
21647;SDS011;10985;54.182;7.890;2024-03-23T09:18:19;2.00;;;1.80;;
21647;SDS011;10985;54.182;7.890;2024-03-23T09:20:44;1.85;;;1.75;;
21647;SDS011;10985;54.182;7.890;2024-03-23T09:23:10;3.03;;;1.75;;
21647;SDS011;10985;54.182;7.890;2024-03-23T09:25:36;2.08;;;1.88;;
21647;SDS011;10985;54.182;7.890;2024-03-23T09:28:03;2.47;;;1.70;;
21647;SDS011;10985;54.182;7.890;2024-03-23T09:30:28;2.40;;;1.80;;
21647;SDS011;10985;54.182;7.890;2024-03-23T09:32:54;2.03;;;1.30;;
21647;SDS011;10985;54.182;7.890;2024-03-23T09:35:19;2.20;;;1.50;;
21647;SDS011;10985;54.182;7.890;2024-03-23T09:37:45;2.10;;;1.23;;
21647;SDS011;10985;54.182;7.890;2024-03-23T09:40:10;3.20;;;1.48;;
21647;SDS011;10985;54.182;7.890;2024-03-23T09:42:36;2.65;;;1.80;;
21647;SDS011;10985;54.182;7.890;2024-03-23T09:45:04;1.45;;;1.35;;
21647;SDS011;10985;54.182;7.890;2024-03-23T09:47:32;2.35;;;1.60;;
21647;SDS011;10985;54.182;7.890;2024-03-23T09:49:58;2.03;;;1.70;;
21647;SDS011;10985;54.182;7.890;2024-03-23T09:52:25;1.42;;;1.33;;
21647;SDS011;10985;54.182;7.890;2024-03-23T09:54:50;2.15;;;1.48;;
21647;SDS011;10985;54.182;7.890;2024-03-23T09:57:16;3.30;;;1.50;;
21647;SDS011;10985;54.182;7.890;2024-03-23T09:59:41;2.35;;;1.60;;
21647;SDS011;10985;54.182;7.890;2024-03-23T10:02:07;1.88;;;1.55;;
21647;SDS011;10985;54.182;7.890;2024-03-23T10:04:36;1.45;;;1.35;;
21647;SDS011;10985;54.182;7.890;2024-03-23T10:09:47;1.80;;;1.52;;
21647;SDS011;10985;54.182;7.890;2024-03-23T10:12:14;2.15;;;1.30;;
21647;SDS011;10985;54.182;7.890;2024-03-23T10:14:42;1.17;;;0.90;;
21647;SDS011;10985;54.182;7.890;2024-03-23T10:17:18;1.30;;;1.20;;
21647;SDS011;10985;54.182;7.890;2024-03-23T10:19:49;1.60;;;0.95;;
21647;SDS011;10985;54.182;7.890;2024-03-23T10:22:20;0.85;;;0.82;;
21647;SDS011;10985;54.182;7.890;2024-03-23T10:24:46;1.38;;;0.93;;
21647;SDS011;10985;54.182;7.890;2024-03-23T10:27:16;1.20;;;1.10;;
21647;SDS011;10985;54.182;7.890;2024-03-23T10:29:45;1.30;;;0.85;;
21647;SDS011;10985;54.182;7.890;2024-03-23T10:32:11;1.42;;;0.90;;
21647;SDS011;10985;54.182;7.890;2024-03-23T10:34:38;2.55;;;1.30;;
21647;SDS011;10985;54.182;7.890;2024-03-23T10:37:04;2.90;;;1.17;;
21647;SDS011;10985;54.182;7.890;2024-03-23T10:39:35;2.85;;;1.15;;
21647;SDS011;10985;54.182;7.890;2024-03-23T10:42:06;2.75;;;1.10;;
21647;SDS011;10985;54.182;7.890;2024-03-23T10:44:32;2.13;;;1.10;;
21647;SDS011;10985;54.182;7.890;2024-03-23T10:46:59;2.60;;;1.15;;
21647;SDS011;10985;54.182;7.890;2024-03-23T10:49:26;2.78;;;1.23;;
21647;SDS011;10985;54.182;7.890;2024-03-23T10:51:54;2.55;;;1.25;;
21647;SDS011;10985;54.182;7.890;2024-03-23T10:54:21;2.60;;;1.30;;
21647;SDS011;10985;54.182;7.890;2024-03-23T10:56:49;3.88;;;1.40;;
21647;SDS011;10985;54.182;7.890;2024-03-23T10:59:18;3.60;;;1.55;;
21647;SDS011;10985;54.182;7.890;2024-03-23T11:01:56;2.95;;;1.48;;
21647;SDS011;10985;54.182;7.890;2024-03-23T11:04:29;3.15;;;1.38;;
21647;SDS011;10985;54.182;7.890;2024-03-23T11:06:58;3.75;;;1.38;;
21647;SDS011;10985;54.182;7.890;2024-03-23T11:14:47;2.90;;;1.48;;
21647;SDS011;10985;54.182;7.890;2024-03-23T11:17:17;2.50;;;1.15;;
21647;SDS011;10985;54.182;7.890;2024-03-23T11:19:44;1.88;;;1.20;;
21647;SDS011;10985;54.182;7.890;2024-03-23T11:22:09;1.63;;;1.20;;
21647;SDS011;10985;54.182;7.890;2024-03-23T11:24:35;2.00;;;1.10;;
21647;SDS011;10985;54.182;7.890;2024-03-23T11:27:00;2.70;;;1.45;;
21647;SDS011;10985;54.182;7.890;2024-03-23T11:29:29;2.00;;;1.15;;
21647;SDS011;10985;54.182;7.890;2024-03-23T11:31:55;3.08;;;1.33;;
21647;SDS011;10985;54.182;7.890;2024-03-23T11:34:20;2.78;;;1.38;;
21647;SDS011;10985;54.182;7.890;2024-03-23T11:36:47;1.77;;;1.10;;
21647;SDS011;10985;54.182;7.890;2024-03-23T11:41:53;2.50;;;1.10;;
21647;SDS011;10985;54.182;7.890;2024-03-23T11:44:20;1.70;;;0.95;;
21647;SDS011;10985;54.182;7.890;2024-03-23T11:46:47;2.33;;;1.40;;
21647;SDS011;10985;54.182;7.890;2024-03-23T11:49:25;1.90;;;1.10;;
21647;SDS011;10985;54.182;7.890;2024-03-23T11:51:53;3.13;;;1.33;;
21647;SDS011;10985;54.182;7.890;2024-03-23T11:54:20;1.77;;;1.20;;
21647;SDS011;10985;54.182;7.890;2024-03-23T11:56:59;2.53;;;1.23;;
21647;SDS011;10985;54.182;7.890;2024-03-23T11:59:33;2.25;;;1.20;;
21647;SDS011;10985;54.182;7.890;2024-03-23T12:02:12;1.98;;;1.00;;
21647;SDS011;10985;54.182;7.890;2024-03-23T12:04:41;2.55;;;1.10;;
21647;SDS011;10985;54.182;7.890;2024-03-23T12:07:13;2.10;;;1.15;;
21647;SDS011;10985;54.182;7.890;2024-03-23T12:09:40;1.75;;;0.90;;
21647;SDS011;10985;54.182;7.890;2024-03-23T12:12:08;2.95;;;1.13;;
21647;SDS011;10985;54.182;7.890;2024-03-23T12:14:40;2.25;;;0.93;;
21647;SDS011;10985;54.182;7.890;2024-03-23T12:19:34;2.60;;;1.20;;
21647;SDS011;10985;54.182;7.890;2024-03-23T12:22:00;4.32;;;1.38;;
21647;SDS011;10985;54.182;7.890;2024-03-23T12:24:26;3.38;;;1.30;;
21647;SDS011;10985;54.182;7.890;2024-03-23T12:26:51;2.13;;;1.42;;
21647;SDS011;10985;54.182;7.890;2024-03-23T12:29:16;2.67;;;1.38;;
21647;SDS011;10985;54.182;7.890;2024-03-23T12:31:43;2.10;;;1.05;;
21647;SDS011;10985;54.182;7.890;2024-03-23T12:34:09;2.72;;;1.33;;
21647;SDS011;10985;54.182;7.890;2024-03-23T12:36:34;2.70;;;1.42;;
21647;SDS011;10985;54.182;7.890;2024-03-23T12:39:00;3.42;;;1.25;;
21647;SDS011;10985;54.182;7.890;2024-03-23T12:41:25;2.92;;;1.42;;
21647;SDS011;10985;54.182;7.890;2024-03-23T12:43:51;4.00;;;1.52;;
21647;SDS011;10985;54.182;7.890;2024-03-23T12:46:16;1.92;;;1.30;;
21647;SDS011;10985;54.182;7.890;2024-03-23T12:48:44;2.75;;;1.58;;
21647;SDS011;10985;54.182;7.890;2024-03-23T12:51:09;2.25;;;1.20;;
21647;SDS011;10985;54.182;7.890;2024-03-23T12:53:35;2.30;;;1.10;;
21647;SDS011;10985;54.182;7.890;2024-03-23T12:56:00;2.45;;;1.27;;
21647;SDS011;10985;54.182;7.890;2024-03-23T12:58:26;3.95;;;1.33;;
21647;SDS011;10985;54.182;7.890;2024-03-23T13:00:52;2.33;;;1.40;;
21647;SDS011;10985;54.182;7.890;2024-03-23T13:03:17;2.53;;;1.00;;
21647;SDS011;10985;54.182;7.890;2024-03-23T13:05:43;2.35;;;1.17;;
21647;SDS011;10985;54.182;7.890;2024-03-23T13:08:08;2.55;;;1.50;;
21647;SDS011;10985;54.182;7.890;2024-03-23T13:10:34;2.70;;;1.38;;
21647;SDS011;10985;54.182;7.890;2024-03-23T13:12:59;2.47;;;1.35;;
21647;SDS011;10985;54.182;7.890;2024-03-23T13:15:25;2.42;;;1.20;;
21647;SDS011;10985;54.182;7.890;2024-03-23T13:17:50;2.90;;;1.45;;
21647;SDS011;10985;54.182;7.890;2024-03-23T13:20:17;3.17;;;1.52;;
21647;SDS011;10985;54.182;7.890;2024-03-23T13:22:42;2.47;;;1.33;;
21647;SDS011;10985;54.182;7.890;2024-03-23T13:25:08;2.47;;;1.50;;
21647;SDS011;10985;54.182;7.890;2024-03-23T13:27:33;3.22;;;1.50;;
21647;SDS011;10985;54.182;7.890;2024-03-23T13:29:59;2.65;;;1.38;;
21647;SDS011;10985;54.182;7.890;2024-03-23T13:32:24;3.72;;;1.50;;
21647;SDS011;10985;54.182;7.890;2024-03-23T13:34:50;2.28;;;1.40;;
21647;SDS011;10985;54.182;7.890;2024-03-23T13:37:15;3.00;;;1.48;;
21647;SDS011;10985;54.182;7.890;2024-03-23T13:39:41;2.95;;;1.70;;
21647;SDS011;10985;54.182;7.890;2024-03-23T13:42:09;3.25;;;1.58;;
21647;SDS011;10985;54.182;7.890;2024-03-23T13:44:34;2.05;;;1.35;;
21647;SDS011;10985;54.182;7.890;2024-03-23T13:47:01;3.10;;;1.50;;
21647;SDS011;10985;54.182;7.890;2024-03-23T13:49:27;2.88;;;1.75;;
21647;SDS011;10985;54.182;7.890;2024-03-23T13:51:54;4.85;;;1.90;;
21647;SDS011;10985;54.182;7.890;2024-03-23T13:54:20;3.42;;;1.70;;
21647;SDS011;10985;54.182;7.890;2024-03-23T13:56:47;2.45;;;1.75;;
21647;SDS011;10985;54.182;7.890;2024-03-23T13:59:16;3.65;;;1.88;;
21647;SDS011;10985;54.182;7.890;2024-03-23T14:01:42;4.35;;;1.65;;
21647;SDS011;10985;54.182;7.890;2024-03-23T14:04:08;4.28;;;2.10;;
21647;SDS011;10985;54.182;7.890;2024-03-23T14:06:34;3.75;;;1.95;;
21647;SDS011;10985;54.182;7.890;2024-03-23T14:09:00;3.45;;;1.98;;
21647;SDS011;10985;54.182;7.890;2024-03-23T14:11:25;2.97;;;1.98;;
21647;SDS011;10985;54.182;7.890;2024-03-23T14:13:52;6.40;;;2.38;;
21647;SDS011;10985;54.182;7.890;2024-03-23T14:16:18;4.05;;;1.90;;
21647;SDS011;10985;54.182;7.890;2024-03-23T14:18:45;4.68;;;2.10;;
21647;SDS011;10985;54.182;7.890;2024-03-23T14:21:11;4.68;;;2.28;;
21647;SDS011;10985;54.182;7.890;2024-03-23T14:23:37;4.22;;;2.05;;
21647;SDS011;10985;54.182;7.890;2024-03-23T14:26:03;5.13;;;2.25;;
21647;SDS011;10985;54.182;7.890;2024-03-23T14:28:28;4.18;;;1.90;;
21647;SDS011;10985;54.182;7.890;2024-03-23T14:30:55;3.40;;;1.83;;
21647;SDS011;10985;54.182;7.890;2024-03-23T14:33:21;4.18;;;2.20;;
21647;SDS011;10985;54.182;7.890;2024-03-23T14:35:53;5.00;;;2.50;;
21647;SDS011;10985;54.182;7.890;2024-03-23T14:38:24;4.18;;;2.85;;
21647;SDS011;10985;54.182;7.890;2024-03-23T14:40:50;5.57;;;2.53;;
21647;SDS011;10985;54.182;7.890;2024-03-23T14:43:17;5.38;;;2.70;;
21647;SDS011;10985;54.182;7.890;2024-03-23T14:48:31;5.60;;;2.60;;
21647;SDS011;10985;54.182;7.890;2024-03-23T14:50:57;4.72;;;2.08;;
21647;SDS011;10985;54.182;7.890;2024-03-23T14:53:24;4.68;;;2.40;;
21647;SDS011;10985;54.182;7.890;2024-03-23T14:55:50;5.00;;;2.20;;
21647;SDS011;10985;54.182;7.890;2024-03-23T14:58:15;5.40;;;2.75;;
21647;SDS011;10985;54.182;7.890;2024-03-23T15:00:41;5.20;;;2.22;;
21647;SDS011;10985;54.182;7.890;2024-03-23T15:03:06;4.43;;;2.00;;
21647;SDS011;10985;54.182;7.890;2024-03-23T15:05:32;6.38;;;2.38;;
21647;SDS011;10985;54.182;7.890;2024-03-23T15:07:57;3.45;;;2.28;;
21647;SDS011;10985;54.182;7.890;2024-03-23T15:10:23;3.92;;;2.22;;
21647;SDS011;10985;54.182;7.890;2024-03-23T15:12:48;4.25;;;1.95;;
21647;SDS011;10985;54.182;7.890;2024-03-23T15:15:14;4.10;;;2.17;;
21647;SDS011;10985;54.182;7.890;2024-03-23T15:17:40;5.43;;;2.17;;
21647;SDS011;10985;54.182;7.890;2024-03-23T15:20:09;5.57;;;2.80;;
21647;SDS011;10985;54.182;7.890;2024-03-23T15:22:36;4.78;;;2.10;;
21647;SDS011;10985;54.182;7.890;2024-03-23T15:25:02;5.10;;;2.47;;
21647;SDS011;10985;54.182;7.890;2024-03-23T15:27:28;5.32;;;2.75;;
21647;SDS011;10985;54.182;7.890;2024-03-23T15:29:55;5.93;;;2.40;;
21647;SDS011;10985;54.182;7.890;2024-03-23T15:32:22;6.55;;;2.85;;
21647;SDS011;10985;54.182;7.890;2024-03-23T15:34:48;2.50;;;1.70;;
21647;SDS011;10985;54.182;7.890;2024-03-23T15:37:13;3.40;;;2.20;;
21647;SDS011;10985;54.182;7.890;2024-03-23T15:39:39;5.72;;;2.60;;
21647;SDS011;10985;54.182;7.890;2024-03-23T15:42:06;3.28;;;2.05;;
21647;SDS011;10985;54.182;7.890;2024-03-23T15:44:32;7.10;;;2.55;;
21647;SDS011;10985;54.182;7.890;2024-03-23T15:46:57;6.47;;;3.03;;
21647;SDS011;10985;54.182;7.890;2024-03-23T15:49:23;4.38;;;2.15;;
21647;SDS011;10985;54.182;7.890;2024-03-23T15:51:48;5.75;;;2.35;;
21647;SDS011;10985;54.182;7.890;2024-03-23T15:54:14;3.97;;;2.50;;